createdAt,value
2019-05-09T00:02:29.704Z,6.00
2019-05-09T00:05:33.673Z,6.08
2019-05-09T00:08:37.268Z,6.20
2019-05-09T00:11:40.876Z,6.70
2019-05-09T00:14:44.552Z,6.15
2019-05-09T00:17:48.195Z,6.55
2019-05-09T00:21:04.125Z,6.53
2019-05-09T00:24:07.884Z,6.55
2019-05-09T00:27:11.485Z,6.42
2019-05-09T00:30:16.832Z,6.72
2019-05-09T00:33:23.584Z,7.15
2019-05-09T00:36:27.187Z,6.95
2019-05-09T00:39:30.791Z,6.80
2019-05-09T00:42:35.261Z,6.78
2019-05-09T00:45:46.324Z,6.87
2019-05-09T00:48:53.335Z,6.70
2019-05-09T00:51:57.054Z,6.33
2019-05-09T00:55:00.601Z,6.53
2019-05-09T00:58:04.380Z,6.10
2019-05-09T01:01:08.476Z,6.40
2019-05-09T01:04:13.647Z,6.25
2019-05-09T01:07:17.358Z,5.70
2019-05-09T01:10:20.927Z,5.42
2019-05-09T01:13:24.467Z,5.15
2019-05-09T01:16:28.110Z,5.83
2019-05-09T01:19:33.722Z,5.70
2019-05-09T01:22:36.945Z,5.55
2019-05-09T01:25:40.530Z,5.25
2019-05-09T01:28:44.351Z,4.22
2019-05-09T01:31:48.010Z,5.03
2019-05-09T01:34:53.074Z,4.45
2019-05-09T01:37:56.689Z,4.72
2019-05-09T01:41:00.312Z,4.47
2019-05-09T01:44:04.161Z,4.28
2019-05-09T01:47:07.905Z,5.42
2019-05-09T01:50:13.874Z,3.67
2019-05-09T01:53:18.480Z,3.60
2019-05-09T01:56:23.496Z,3.55
2019-05-09T01:59:27.247Z,4.00
2019-05-09T02:02:30.818Z,3.52
2019-05-09T02:05:34.388Z,3.60
2019-05-09T02:08:37.936Z,3.90
2019-05-09T02:11:43.281Z,3.45
2019-05-09T02:14:48.462Z,3.80
2019-05-09T02:18:00.625Z,3.08
2019-05-09T02:20:58.965Z,3.17
2019-05-09T02:24:03.306Z,3.27
2019-05-09T02:27:07.017Z,3.42
2019-05-09T02:30:14.786Z,3.33
2019-05-09T02:33:16.983Z,3.42
2019-05-09T02:36:20.566Z,3.58
2019-05-09T02:39:24.120Z,3.85
2019-05-09T02:42:28.200Z,3.70
2019-05-09T02:45:33.529Z,3.77
2019-05-09T02:48:38.629Z,3.72
2019-05-09T02:51:42.354Z,4.17
2019-05-09T02:54:45.875Z,3.70
2019-05-09T02:57:51.066Z,3.70
2019-05-09T03:00:59.816Z,3.55
2019-05-09T03:04:03.619Z,3.27
2019-05-09T03:07:09.674Z,3.37
2019-05-09T03:10:12.518Z,3.50
2019-05-09T03:13:19.050Z,3.20
2019-05-09T03:16:21.559Z,3.62
2019-05-09T03:19:25.141Z,2.87
2019-05-09T03:22:28.968Z,3.20
2019-05-09T03:25:33.042Z,2.40
2019-05-09T03:28:41.013Z,3.00
2019-05-09T03:31:45.071Z,2.87
2019-05-09T03:34:48.605Z,2.60
2019-05-09T03:38:08.132Z,2.42
2019-05-09T03:41:12.846Z,2.40
2019-05-09T03:44:17.912Z,2.35
2019-05-09T03:47:23.266Z,2.20
2019-05-09T03:50:27.959Z,1.90
2019-05-09T03:53:31.706Z,2.15
2019-05-09T03:56:48.886Z,2.10
2019-05-09T03:59:52.426Z,2.05
2019-05-09T04:02:58.045Z,2.22
2019-05-09T04:06:03.018Z,2.42
2019-05-09T04:09:08.084Z,2.30
2019-05-09T04:12:11.665Z,1.70
2019-05-09T04:15:18.846Z,2.00
2019-05-09T04:18:20.919Z,2.00
2019-05-09T04:21:24.482Z,1.90
2019-05-09T04:24:29.335Z,1.98
2019-05-09T04:27:34.078Z,1.98
2019-05-09T04:30:37.649Z,1.95
2019-05-09T04:33:41.205Z,1.60
2019-05-09T04:36:44.952Z,1.60
2019-05-09T04:39:48.623Z,1.77
2019-05-09T04:42:52.201Z,1.92
2019-05-09T04:45:57.877Z,1.98
2019-05-09T04:52:17.902Z,1.90
2019-05-09T04:55:22.758Z,1.85
2019-05-09T04:58:27.424Z,2.08
2019-05-09T05:01:39.054Z,2.02
2019-05-09T05:04:42.802Z,2.60
2019-05-09T05:07:48.060Z,2.00
2019-05-09T05:10:51.888Z,1.62
2019-05-09T05:13:55.394Z,1.50
2019-05-09T05:17:07.533Z,1.52
2019-05-09T05:20:08.373Z,1.50
2019-05-09T05:23:18.147Z,1.92
2019-05-09T05:26:21.763Z,1.60
2019-05-09T05:29:25.290Z,2.42
2019-05-09T05:32:30.576Z,1.67
2019-05-09T05:35:37.538Z,1.60
2019-05-09T05:38:41.234Z,1.70
2019-05-09T05:41:44.811Z,1.60
2019-05-09T05:44:48.336Z,1.85
2019-05-09T05:47:57.646Z,1.95
2019-05-09T05:51:01.358Z,1.40
2019-05-09T05:54:04.989Z,1.92
2019-05-09T05:57:08.654Z,1.50
2019-05-09T06:00:13.561Z,1.50
2019-05-09T06:03:17.826Z,1.60
2019-05-09T06:06:21.454Z,1.90
2019-05-09T06:09:25.055Z,1.55
2019-05-09T06:12:28.617Z,1.42
2019-05-09T06:15:32.170Z,1.62
2019-05-09T06:18:38.280Z,1.67
2019-05-09T06:21:42.845Z,1.42
2019-05-09T06:24:47.852Z,1.60
2019-05-09T06:27:51.495Z,1.80
2019-05-09T06:30:55.130Z,1.42
2019-05-09T06:33:58.769Z,1.82
2019-05-09T06:37:03.318Z,1.80
2019-05-09T06:40:08.098Z,1.40
2019-05-09T06:43:18.843Z,2.60
2019-05-09T06:46:24.026Z,1.37
2019-05-09T06:49:31.972Z,1.72
2019-05-09T06:52:34.465Z,1.40
2019-05-09T06:55:38.621Z,1.35
2019-05-09T06:58:43.054Z,1.35
2019-05-09T07:01:50.852Z,1.50
2019-05-09T07:04:58.577Z,1.15
2019-05-09T07:08:03.878Z,1.30
2019-05-09T07:11:07.665Z,1.20
2019-05-09T07:14:33.301Z,1.20
2019-05-09T07:17:38.579Z,1.30
2019-05-09T07:20:41.618Z,1.27
2019-05-09T07:23:45.196Z,1.30
2019-05-09T07:26:48.803Z,1.15
2019-05-09T07:29:52.609Z,1.35
2019-05-09T07:33:00.401Z,1.20
2019-05-09T07:36:03.941Z,1.40
2019-05-09T07:39:08.739Z,1.52
2019-05-09T07:42:12.674Z,1.05
2019-05-09T07:45:17.821Z,1.20
2019-05-09T07:48:21.653Z,0.95
2019-05-09T07:51:27.424Z,1.20
2019-05-09T07:54:30.585Z,1.15
2019-05-09T07:57:34.198Z,1.02
2019-05-09T08:00:38.645Z,1.10
2019-05-09T08:03:42.220Z,1.10
2019-05-09T08:06:48.435Z,1.10
2019-05-09T08:09:51.229Z,1.25
2019-05-09T08:12:54.839Z,1.12
2019-05-09T08:15:59.414Z,1.47
2019-05-09T08:19:03.100Z,1.00
2019-05-09T08:22:07.951Z,1.40
2019-05-09T08:25:11.862Z,1.45
2019-05-09T08:28:17.975Z,1.32
2019-05-09T08:31:20.915Z,1.00
2019-05-09T08:34:24.541Z,1.62
2019-05-09T08:37:28.449Z,1.10
2019-05-09T08:40:32.161Z,1.00
2019-05-09T08:43:37.686Z,1.35
2019-05-09T08:46:41.318Z,1.30
2019-05-09T08:49:49.591Z,1.25
2019-05-09T08:52:53.418Z,1.27
2019-05-09T08:55:58.052Z,1.10
2019-05-09T08:59:02.472Z,1.30
2019-05-09T09:02:18.480Z,1.20
2019-05-09T09:05:13.996Z,1.20
2019-05-09T09:08:18.373Z,1.30
2019-05-09T09:11:22.214Z,1.00
2019-05-09T09:17:58.174Z,1.20
2019-05-09T09:21:01.804Z,2.00
2019-05-09T09:24:05.494Z,1.40
2019-05-09T09:27:09.246Z,1.37
2019-05-09T09:30:21.709Z,1.37
2019-05-09T09:33:21.657Z,2.50
2019-05-09T09:36:25.260Z,2.45
2019-05-09T09:39:31.243Z,1.37
2019-05-09T09:42:34.688Z,1.50
2019-05-09T09:45:38.302Z,1.50
2019-05-09T09:48:41.987Z,1.37
2019-05-09T09:51:48.399Z,1.32
2019-05-09T09:54:51.225Z,1.20
2019-05-09T09:57:54.830Z,1.22
2019-05-09T10:01:03.780Z,1.17
2019-05-09T10:04:19.712Z,1.20
2019-05-09T10:07:14.587Z,1.00
2019-05-09T10:10:33.207Z,1.40
2019-05-09T10:13:37.472Z,1.15
2019-05-09T10:16:47.802Z,1.30
2019-05-09T10:19:52.561Z,1.50
2019-05-09T10:23:03.281Z,1.20
2019-05-09T10:26:01.548Z,1.10
2019-05-09T10:29:05.155Z,1.27
2019-05-09T10:32:13.774Z,1.10
2019-05-09T10:35:22.730Z,1.30
2019-05-09T10:38:27.959Z,1.10
2019-05-09T10:41:31.924Z,1.52
2019-05-09T10:44:42.882Z,1.37
2019-05-09T10:47:48.283Z,1.10
2019-05-09T10:50:54.002Z,1.60
2019-05-09T10:53:58.742Z,1.77
2019-05-09T10:57:02.772Z,1.40
2019-05-09T11:00:08.772Z,1.57
2019-05-09T11:03:12.666Z,1.98
2019-05-09T11:06:18.316Z,1.30
2019-05-09T11:09:21.710Z,1.25
2019-05-09T11:12:27.474Z,1.10
2019-05-09T11:15:30.694Z,1.40
2019-05-09T11:18:34.525Z,1.80
2019-05-09T11:21:39.333Z,1.45
2019-05-09T11:24:48.168Z,1.30
2019-05-09T11:27:59.194Z,1.52
2019-05-09T11:30:53.884Z,1.25
2019-05-09T11:33:57.997Z,1.20
2019-05-09T11:37:01.916Z,1.15
2019-05-09T11:40:06.776Z,1.10
2019-05-09T11:43:10.541Z,1.20
2019-05-09T11:46:14.170Z,1.10
2019-05-09T11:49:18.141Z,1.30
2019-05-09T11:52:21.876Z,1.50
2019-05-09T11:55:34.721Z,1.47
2019-05-09T11:58:30.899Z,1.52
2019-05-09T12:01:34.492Z,1.37
2019-05-09T12:04:38.115Z,2.40
2019-05-09T12:07:41.725Z,1.52
2019-05-09T12:10:45.407Z,1.45
2019-05-09T12:13:49.057Z,1.40
2019-05-09T12:16:52.677Z,1.37
2019-05-09T12:20:09.540Z,1.30
2019-05-09T12:23:01.682Z,1.15
2019-05-09T12:26:08.013Z,1.50
2019-05-09T12:29:10.629Z,1.32
2019-05-09T12:32:14.342Z,1.10
2019-05-09T12:35:19.121Z,1.20
2019-05-09T12:38:22.979Z,1.40
2019-05-09T12:41:30.989Z,1.10
2019-05-09T12:44:32.136Z,1.17
2019-05-09T12:47:35.790Z,1.50
2019-05-09T12:50:41.083Z,1.40
2019-05-09T12:57:10.114Z,1.40
2019-05-09T13:00:38.233Z,0.90
2019-05-09T13:03:44.638Z,1.27
2019-05-09T13:06:58.771Z,1.07
2019-05-09T13:10:02.788Z,0.90
2019-05-09T13:13:09.452Z,1.87
2019-05-09T13:16:44.372Z,1.37
2019-05-09T13:22:42.643Z,1.07
2019-05-09T13:25:50.223Z,0.80
2019-05-09T13:28:51.635Z,1.02
2019-05-09T13:31:57.587Z,1.00
2019-05-09T13:35:01.075Z,1.12
2019-05-09T13:38:04.678Z,1.00
2019-05-09T13:41:08.601Z,0.90
2019-05-09T13:44:13.974Z,1.10
2019-05-09T13:47:18.040Z,1.12
2019-05-09T13:50:21.764Z,0.90
2019-05-09T13:53:25.359Z,1.25
2019-05-09T13:56:28.989Z,1.07
2019-05-09T13:59:32.594Z,1.02
2019-05-09T14:02:38.444Z,0.80
2019-05-09T14:05:41.602Z,2.80
2019-05-09T14:08:48.515Z,1.10
2019-05-09T14:11:50.642Z,1.02
2019-05-09T14:18:08.346Z,1.45
2019-05-09T14:21:12.158Z,1.12
2019-05-09T14:24:19.029Z,0.80
2019-05-09T14:27:21.142Z,0.98
2019-05-09T14:30:27.371Z,0.70
2019-05-09T14:33:32.542Z,0.80
2019-05-09T14:36:39.118Z,0.90
2019-05-09T14:39:54.865Z,0.80
2019-05-09T14:42:49.288Z,1.67
2019-05-09T14:45:52.256Z,1.00
2019-05-09T14:48:58.196Z,1.20
2019-05-09T14:52:01.243Z,0.82
2019-05-09T14:55:08.274Z,1.00
2019-05-09T14:58:12.003Z,0.70
2019-05-09T15:01:15.706Z,0.70
2019-05-09T15:04:19.317Z,0.80
2019-05-09T15:07:22.916Z,1.17
2019-05-09T15:10:26.557Z,0.90
2019-05-09T15:13:34.726Z,0.72
2019-05-09T15:16:39.220Z,0.93
2019-05-09T15:19:56.558Z,1.07
2019-05-09T15:22:47.876Z,1.10
2019-05-09T15:25:51.821Z,1.00
2019-05-09T15:28:58.217Z,1.00
2019-05-09T15:32:06.242Z,0.88
2019-05-09T15:35:10.577Z,0.90
2019-05-09T15:38:17.927Z,0.70
2019-05-09T15:41:21.250Z,0.90
2019-05-09T15:44:24.935Z,1.30
2019-05-09T15:47:30.204Z,0.70
2019-05-09T15:50:33.804Z,1.10
2019-05-09T15:53:38.083Z,1.00
2019-05-09T15:56:44.118Z,0.80
2019-05-09T15:59:47.934Z,0.75
2019-05-09T16:02:51.809Z,1.05
2019-05-09T16:05:55.423Z,1.60
2019-05-09T16:08:59.084Z,0.93
2019-05-09T16:12:07.615Z,1.10
2019-05-09T16:15:08.582Z,1.05
2019-05-09T16:18:12.204Z,0.98
2019-05-09T16:21:15.867Z,1.40
2019-05-09T16:24:19.526Z,1.05
2019-05-09T16:27:23.188Z,0.82
2019-05-09T16:30:27.535Z,0.93
2019-05-09T16:33:31.282Z,1.40
2019-05-09T16:36:34.968Z,1.20
2019-05-09T16:39:38.911Z,1.45
2019-05-09T16:42:42.542Z,1.80
2019-05-09T16:45:47.685Z,1.00
2019-05-09T16:48:51.409Z,1.12
2019-05-09T16:51:58.217Z,1.20
2019-05-09T16:55:03.514Z,1.17
2019-05-09T16:58:14.881Z,0.80
2019-05-09T17:01:18.594Z,1.05
2019-05-09T17:04:21.153Z,1.20
2019-05-09T17:07:35.206Z,1.22
2019-05-09T17:10:51.363Z,0.93
2019-05-09T17:13:54.985Z,0.88
2019-05-09T17:16:59.979Z,0.95
2019-05-09T17:20:04.857Z,1.00
2019-05-09T17:23:15.624Z,1.35
2019-05-09T17:26:19.370Z,1.10
2019-05-09T17:30:13.589Z,1.35
2019-05-09T17:32:30.514Z,0.90
2019-05-09T17:35:34.421Z,1.27
2019-05-09T17:38:40.208Z,1.45
2019-05-09T17:41:45.421Z,1.22
2019-05-09T17:44:49.105Z,1.10
2019-05-09T17:47:54.235Z,1.05
2019-05-09T17:50:58.098Z,1.60
2019-05-09T17:54:01.728Z,2.85
2019-05-09T17:57:07.997Z,5.58
2019-05-09T18:00:21.115Z,3.67
2019-05-09T18:03:22.284Z,2.72
2019-05-09T18:06:28.312Z,1.52
2019-05-09T18:09:31.525Z,2.17
2019-05-09T18:12:35.153Z,1.70
2019-05-09T18:15:38.970Z,1.22
2019-05-09T18:18:48.089Z,3.95
2019-05-09T18:21:52.343Z,1.95
2019-05-09T18:24:57.728Z,1.30
2019-05-09T18:28:01.455Z,1.30
2019-05-09T18:31:09.436Z,1.67
2019-05-09T18:38:02.551Z,1.50
2019-05-09T18:41:10.153Z,1.20
2019-05-09T18:44:15.267Z,1.40
2019-05-09T18:47:18.867Z,1.32
2019-05-09T18:50:22.715Z,1.40
2019-05-09T18:53:45.788Z,1.20
2019-05-09T18:56:49.084Z,2.00
2019-05-09T18:59:48.341Z,1.40
2019-05-09T19:03:05.186Z,1.65
2019-05-09T19:06:25.737Z,1.35
2019-05-09T19:09:30.940Z,1.47
2019-05-09T19:12:37.844Z,2.20
2019-05-09T19:16:00.682Z,2.02
2019-05-09T19:19:06.087Z,3.22
2019-05-09T19:22:21.906Z,4.30
2019-05-09T19:25:16.711Z,3.15
2019-05-09T19:28:23.846Z,5.05
2019-05-09T19:31:25.879Z,2.92
2019-05-09T19:38:29.485Z,2.83
2019-05-09T19:41:36.055Z,2.87
2019-05-09T19:44:48.922Z,3.70
2019-05-09T19:47:52.914Z,3.20
2019-05-09T19:50:56.529Z,2.10
2019-05-09T19:54:00.115Z,1.82
2019-05-09T19:57:07.732Z,1.62
2019-05-09T20:00:21.459Z,1.50
2019-05-09T20:03:45.836Z,1.47
2019-05-09T20:06:50.501Z,1.50
2019-05-09T20:10:00.726Z,2.20
2019-05-09T20:13:17.572Z,2.40
2019-05-09T20:16:27.216Z,2.30
2019-05-09T20:19:36.235Z,1.90
2019-05-09T20:22:52.374Z,1.60
2019-05-09T20:25:57.091Z,1.20
2019-05-09T20:29:18.430Z,1.02
2019-05-09T20:32:21.983Z,2.75
2019-05-09T20:35:34.514Z,1.80
2019-05-09T20:38:41.455Z,1.10
2019-05-09T20:41:45.239Z,1.05
2019-05-09T20:44:52.412Z,1.32
2019-05-09T20:47:56.402Z,1.42
2019-05-09T20:51:00.223Z,1.12
2019-05-09T20:54:20.025Z,5.53
2019-05-09T20:57:14.189Z,1.42
2019-05-09T21:00:17.978Z,1.47
2019-05-09T21:03:24.466Z,1.65
2019-05-09T21:06:30.048Z,1.10
2019-05-09T21:09:46.235Z,1.22
2019-05-09T21:12:51.811Z,2.27
2019-05-09T21:19:06.907Z,2.60
2019-05-09T21:22:42.257Z,1.30
2019-05-09T21:25:23.106Z,0.90
2019-05-09T21:28:26.938Z,0.80
2019-05-09T21:31:33.364Z,0.65
2019-05-09T21:34:49.474Z,0.80
2019-05-09T21:37:53.111Z,1.00
2019-05-09T21:40:58.313Z,0.80
2019-05-09T21:44:01.832Z,1.05
2019-05-09T21:47:05.363Z,0.60
2019-05-09T21:50:09.253Z,0.90
2019-05-09T21:53:12.854Z,0.70
2019-05-09T21:56:16.558Z,0.75
2019-05-09T21:59:20.096Z,0.80
2019-05-09T22:02:24.204Z,1.00
2019-05-09T22:05:27.755Z,1.00
2019-05-09T22:08:31.293Z,0.80
2019-05-09T22:11:34.842Z,1.07
2019-05-09T22:14:38.467Z,0.60
2019-05-09T22:17:44.022Z,0.72
2019-05-09T22:20:47.579Z,0.60
2019-05-09T22:24:00.368Z,1.05
2019-05-09T22:27:03.758Z,1.12
2019-05-09T22:30:11.493Z,0.75
2019-05-09T22:33:20.204Z,0.80
2019-05-09T22:36:25.303Z,0.80
2019-05-09T22:39:28.842Z,1.50
2019-05-09T22:42:32.390Z,0.60
2019-05-09T22:45:36.098Z,1.27
2019-05-09T22:48:39.696Z,0.93
2019-05-09T22:51:47.942Z,0.90
2019-05-09T22:55:04.149Z,0.90
2019-05-09T22:58:07.693Z,0.88
2019-05-09T23:01:12.916Z,1.20
2019-05-09T23:04:18.068Z,1.10
2019-05-09T23:07:23.771Z,0.90
2019-05-09T23:10:27.606Z,0.82
2019-05-09T23:13:32.810Z,0.90
2019-05-09T23:16:37.986Z,1.02
2019-05-09T23:19:41.546Z,1.00
2019-05-09T23:22:45.112Z,1.20
2019-05-09T23:25:48.661Z,1.60
2019-05-09T23:28:52.287Z,1.27
2019-05-09T23:32:00.180Z,1.15
2019-05-09T23:35:04.014Z,1.00
2019-05-09T23:38:08.606Z,0.90
2019-05-09T23:41:12.169Z,1.42
2019-05-09T23:44:15.722Z,1.30
2019-05-09T23:47:19.287Z,1.17
2019-05-09T23:50:22.849Z,1.25
2019-05-09T23:53:32.593Z,1.27
2019-05-09T23:56:53.863Z,1.02
